Airfield :
LOGIN :

Register | Disclaimer

   EN    FR    IT 

 










Legend :    VFR   Marginal VFR   IFR   Intensive IFR   Very Intensive IFR
Visi :
Ceiling :
>= 8 km
>= 3000ft
5 to 8 km
1000 to 3000 ft
1500m to 5 km
500 to 1000 ft
800 to 1500m
200 to 500 ft
< 800m
< 200 ft
Symbols :   Thunderstorms  Fog  Heavy snow  Heavy precipitations  Wind > 20 kt
SIGMETs :     Misc.  Thunderstorms  Icing  Turbulence  Mountain Waves  Volcanic Ashes






- Airport Elevation : 138 ft
- IATA code : BIO


LEBB - Bilbao

CURRENT METAR :
  • 012100Z 12003KT 080V150 9999 FEW044 SCT050 BKN060 13/10 Q1014 NOSIG

EXPIRED METARs :
  • 012030Z 10003KT 070V130 9999 FEW044 BKN060 14/09 Q1014 NOSIG
  • 012000Z 09003KT 060V150 9999 FEW044 SCT060 BKN070 14/09 Q1013 NOSIG
  • 011930Z 08005KT 9999 FEW044 SCT060 BKN070 15/09 Q1013 NOSIG
  • 011900Z 11003KT 080V140 9999 FEW044 SCT060 BKN070 15/09 Q1013 NOSIG
  • 011830Z 11003KT 070V140 9999 FEW045 SCT060 15/08 Q1012 NOSIG
  • 011800Z 12003KT 080V150 9999 FEW050 BKN070 16/08 Q1012 NOSIG

TAF TAF LEBB
Valid from the 01 at 18:00 until the 02 at 18:00 UTC


011700Z 0118/0218 12009KT 9999 SCT040 TX15/0215Z TN07/0206Z
TEMPO 0118/0124 RA



MET'MAP, your aeronautical weather chart ! - Copyright ORBIFLY December 2007 - Disclaimer

ORBIFLY MET'MAP TEAM :

Programming & Development : Alexandra Zaïnal
Concept & original design : Baudouin d'Aumeries
Assistance for programming : Marc-Olivier Méhu
Technical & hardware support : Manuel Goepfert

Contact : metmap@orbifly.com




SOURCES & CREDITS :

   NOAA